createdAt,value
2017-07-19T00:00:18.769Z,99.90
2017-07-19T00:02:45.706Z,99.90
2017-07-19T00:05:12.677Z,99.90
2017-07-19T00:07:39.621Z,99.90
2017-07-19T00:10:07.493Z,99.90
2017-07-19T00:12:34.429Z,99.90
2017-07-19T00:15:01.411Z,99.90
2017-07-19T00:17:29.149Z,99.90
2017-07-19T00:19:56.103Z,99.90
2017-07-19T00:22:23.046Z,99.90
2017-07-19T00:24:50.038Z,99.90
2017-07-19T00:27:16.986Z,99.90
2017-07-19T00:29:43.929Z,99.90
2017-07-19T00:32:10.887Z,99.90
2017-07-19T00:34:37.807Z,99.90
2017-07-19T00:37:05.525Z,99.90
2017-07-19T00:39:32.466Z,99.90
2017-07-19T00:41:59.428Z,99.90
2017-07-19T00:44:27.363Z,99.90
2017-07-19T00:46:54.307Z,99.90
2017-07-19T00:49:21.240Z,99.90
2017-07-19T00:51:48.215Z,99.90
2017-07-19T00:54:15.162Z,99.90
2017-07-19T00:56:42.102Z,99.90
2017-07-19T00:59:09.043Z,99.90
2017-07-19T01:01:35.997Z,99.90
2017-07-19T01:04:02.934Z,99.90
2017-07-19T01:06:29.878Z,99.90
2017-07-19T01:08:56.824Z,99.90
2017-07-19T01:11:24.800Z,99.90
2017-07-19T01:13:51.743Z,99.90
2017-07-19T01:16:18.700Z,99.90
2017-07-19T01:18:45.658Z,99.90
2017-07-19T01:21:12.600Z,99.90
2017-07-19T01:23:39.561Z,99.90
2017-07-19T01:26:08.297Z,99.90
2017-07-19T01:28:35.225Z,99.90
2017-07-19T01:31:02.168Z,99.90
2017-07-19T01:33:29.113Z,99.90
2017-07-19T01:35:56.050Z,99.90
2017-07-19T01:38:22.974Z,99.90
2017-07-19T01:40:50.686Z,99.90
2017-07-19T01:43:17.620Z,99.90
2017-07-19T01:45:44.589Z,99.90
2017-07-19T01:48:11.532Z,99.90
2017-07-19T01:50:38.512Z,99.90
2017-07-19T01:53:06.213Z,99.90
2017-07-19T01:55:33.188Z,99.90
2017-07-19T01:58:00.157Z,99.90
2017-07-19T02:00:27.926Z,99.90
2017-07-19T02:02:55.633Z,99.90
2017-07-19T02:05:22.595Z,99.90
2017-07-19T02:07:49.551Z,99.90
2017-07-19T02:10:16.518Z,99.90
2017-07-19T02:12:44.229Z,99.90
2017-07-19T02:15:11.189Z,99.90
2017-07-19T02:17:38.122Z,99.90
2017-07-19T02:20:05.097Z,99.90
2017-07-19T02:22:32.042Z,99.90
2017-07-19T02:24:59.055Z,99.90
2017-07-19T02:27:25.974Z,99.90
2017-07-19T02:29:52.946Z,99.90
2017-07-19T02:32:19.891Z,99.90
2017-07-19T02:34:46.836Z,99.90
2017-07-19T02:37:13.776Z,99.90
2017-07-19T02:39:40.734Z,99.90
2017-07-19T02:42:07.756Z,99.90
2017-07-19T02:44:34.694Z,99.90
2017-07-19T02:47:01.641Z,99.90
2017-07-19T02:49:28.584Z,99.90
2017-07-19T02:51:55.532Z,99.90
2017-07-19T02:54:22.488Z,99.90
2017-07-19T02:56:49.442Z,99.90
2017-07-19T02:59:16.377Z,99.90
2017-07-19T03:01:43.329Z,99.90
2017-07-19T03:04:10.288Z,99.90
2017-07-19T03:06:37.269Z,99.90
2017-07-19T03:09:05.194Z,99.90
2017-07-19T03:11:32.130Z,99.90
2017-07-19T03:13:59.078Z,99.90
2017-07-19T03:16:26.029Z,99.90
2017-07-19T03:18:52.969Z,99.90
2017-07-19T03:21:19.929Z,99.90
2017-07-19T03:23:46.863Z,99.90
2017-07-19T03:26:14.758Z,99.90
2017-07-19T03:28:41.683Z,99.90
2017-07-19T03:31:08.650Z,99.90
2017-07-19T03:33:35.600Z,99.90
2017-07-19T03:36:02.549Z,99.90
2017-07-19T03:38:29.484Z,99.90
2017-07-19T03:40:56.418Z,99.90
2017-07-19T03:43:23.354Z,99.90
2017-07-19T03:45:50.337Z,99.90
2017-07-19T03:48:18.038Z,99.90
2017-07-19T03:50:45.002Z,99.90
2017-07-19T03:53:11.929Z,99.90
2017-07-19T03:55:38.858Z,99.90
2017-07-19T03:58:05.819Z,99.90
2017-07-19T04:00:32.764Z,99.90
2017-07-19T04:03:00.751Z,99.90
2017-07-19T04:05:27.704Z,99.90
2017-07-19T04:07:54.683Z,99.90
2017-07-19T04:10:22.384Z,99.90
2017-07-19T04:12:49.358Z,99.90
2017-07-19T04:15:16.303Z,99.90
2017-07-19T04:17:43.249Z,99.90
2017-07-19T04:20:11.182Z,99.90
2017-07-19T04:22:38.136Z,99.90
2017-07-19T04:25:06.120Z,99.90
2017-07-19T04:27:33.984Z,99.90
2017-07-19T04:30:00.917Z,99.90
2017-07-19T04:32:31.568Z,99.90
2017-07-19T04:34:59.516Z,99.90
2017-07-19T04:37:27.397Z,99.90
2017-07-19T04:39:54.692Z,99.90
2017-07-19T04:42:22.391Z,99.90
2017-07-19T04:44:49.305Z,99.90
2017-07-19T04:47:17.028Z,99.90
2017-07-19T04:49:43.956Z,99.90
2017-07-19T04:52:10.883Z,99.90
2017-07-19T04:54:37.831Z,99.90
2017-07-19T04:57:04.775Z,99.90
2017-07-19T04:59:31.762Z,99.90
2017-07-19T05:01:58.721Z,99.90
2017-07-19T05:04:26.534Z,99.90
2017-07-19T05:06:53.485Z,99.90
2017-07-19T05:09:20.463Z,99.90
2017-07-19T05:11:48.380Z,99.90
2017-07-19T05:14:15.337Z,99.90
2017-07-19T05:16:42.280Z,99.90
2017-07-19T05:19:09.254Z,99.90
2017-07-19T05:21:36.214Z,99.90
2017-07-19T05:24:04.153Z,99.90
2017-07-19T05:26:31.106Z,99.90
2017-07-19T05:28:58.978Z,99.90
2017-07-19T05:31:25.926Z,99.90
2017-07-19T05:33:52.884Z,99.90
2017-07-19T05:36:19.822Z,99.90
2017-07-19T05:38:46.757Z,99.90
2017-07-19T05:41:13.720Z,99.90
2017-07-19T05:43:40.667Z,99.90
2017-07-19T05:46:08.403Z,99.90
2017-07-19T05:48:36.364Z,99.90
2017-07-19T05:51:03.336Z,99.90
2017-07-19T05:53:30.290Z,99.90
2017-07-19T05:55:57.244Z,99.90
2017-07-19T05:58:24.181Z,99.90
2017-07-19T06:00:51.955Z,99.90
2017-07-19T06:03:18.901Z,99.90
2017-07-19T06:05:46.601Z,99.90
2017-07-19T06:08:13.561Z,99.90
2017-07-19T06:10:40.504Z,99.90
2017-07-19T06:13:07.456Z,99.90
2017-07-19T06:15:34.480Z,99.90
2017-07-19T06:18:01.446Z,99.90
2017-07-19T06:20:28.389Z,99.90
2017-07-19T06:22:55.365Z,99.90
2017-07-19T06:25:22.306Z,99.90
2017-07-19T06:27:49.280Z,99.90
2017-07-19T06:30:17.160Z,99.90
2017-07-19T06:32:47.158Z,99.90
2017-07-19T06:35:16.095Z,99.90
2017-07-19T06:37:43.044Z,99.90
2017-07-19T06:40:10.070Z,99.90
2017-07-19T06:42:37.046Z,99.90
2017-07-19T06:45:04.834Z,99.90
2017-07-19T06:47:32.584Z,99.90
2017-07-19T06:50:00.503Z,99.90
2017-07-19T06:52:27.444Z,99.90
2017-07-19T06:54:55.313Z,99.90
2017-07-19T06:57:22.293Z,99.90
2017-07-19T06:59:49.271Z,99.90
2017-07-19T07:02:16.970Z,99.90
2017-07-19T07:04:43.944Z,99.90
2017-07-19T07:07:11.882Z,99.90
2017-07-19T07:09:39.749Z,99.90
2017-07-19T07:12:06.724Z,99.90
2017-07-19T07:14:33.686Z,99.90
2017-07-19T07:17:00.619Z,99.90
2017-07-19T07:19:27.564Z,99.90
2017-07-19T07:21:54.518Z,99.90
2017-07-19T07:24:21.501Z,99.90
2017-07-19T07:26:48.423Z,99.90
2017-07-19T07:29:17.067Z,99.90
2017-07-19T07:31:45.937Z,99.90
2017-07-19T07:34:13.817Z,99.90
2017-07-19T07:36:40.757Z,99.90
2017-07-19T07:39:07.768Z,99.90
2017-07-19T07:41:35.468Z,99.80
2017-07-19T07:44:02.429Z,99.70
2017-07-19T07:46:29.370Z,99.20
2017-07-19T07:48:56.342Z,99.50
2017-07-19T07:51:23.284Z,98.80
2017-07-19T07:53:50.498Z,99.10
2017-07-19T07:56:20.781Z,98.80
2017-07-19T07:58:48.480Z,98.30
2017-07-19T08:01:15.461Z,98.20
2017-07-19T08:03:42.385Z,97.20
2017-07-19T08:06:10.349Z,97.40
2017-07-19T08:08:37.291Z,97.10
2017-07-19T08:11:04.241Z,96.70
2017-07-19T08:13:31.177Z,96.40
2017-07-19T08:15:58.135Z,97.20
2017-07-19T08:18:25.079Z,97.00
2017-07-19T08:20:52.029Z,97.60
2017-07-19T08:23:18.964Z,97.10
2017-07-19T08:25:45.920Z,96.00
2017-07-19T08:28:12.881Z,95.50
2017-07-19T08:30:39.835Z,95.90
2017-07-19T08:33:07.544Z,96.20
2017-07-19T08:35:34.523Z,96.00
2017-07-19T08:38:01.453Z,93.70
2017-07-19T08:40:28.405Z,94.10
2017-07-19T08:42:55.336Z,94.30
2017-07-19T08:45:22.291Z,93.90
2017-07-19T08:47:50.245Z,94.00
2017-07-19T08:50:18.210Z,94.40
2017-07-19T08:52:45.155Z,93.90
2017-07-19T08:55:12.091Z,93.20
2017-07-19T08:57:39.020Z,92.60
2017-07-19T09:00:05.973Z,93.00
2017-07-19T09:02:32.920Z,92.50
2017-07-19T09:04:59.893Z,92.40
2017-07-19T09:07:26.825Z,91.60
2017-07-19T09:09:53.789Z,91.40
2017-07-19T09:12:20.718Z,91.80
2017-07-19T09:14:47.700Z,91.80
2017-07-19T09:17:14.639Z,92.20
2017-07-19T09:19:41.583Z,91.70
2017-07-19T09:22:10.453Z,91.60
2017-07-19T09:24:37.435Z,91.80
2017-07-19T09:27:04.414Z,91.40
2017-07-19T09:29:31.354Z,91.90
2017-07-19T09:31:58.528Z,92.00
2017-07-19T09:34:27.420Z,91.60
2017-07-19T09:36:56.161Z,90.90
2017-07-19T09:39:23.105Z,90.80
2017-07-19T09:41:50.106Z,90.50
2017-07-19T09:44:17.796Z,90.20
2017-07-19T09:46:44.758Z,90.10
2017-07-19T09:49:17.389Z,90.20
2017-07-19T09:51:49.297Z,90.10
2017-07-19T09:54:16.328Z,90.00
2017-07-19T09:56:43.292Z,89.10
2017-07-19T09:59:10.233Z,88.80
2017-07-19T10:01:37.208Z,88.80
2017-07-19T10:04:05.153Z,86.00
2017-07-19T10:06:32.279Z,85.10
2017-07-19T10:09:00.260Z,82.30
2017-07-19T10:11:27.249Z,82.90
2017-07-19T10:13:55.135Z,81.40
2017-07-19T10:16:22.072Z,82.50
2017-07-19T10:18:49.797Z,82.40
2017-07-19T10:21:16.738Z,82.20
2017-07-19T10:23:45.729Z,81.60
2017-07-19T10:26:15.926Z,80.70
2017-07-19T10:28:44.833Z,81.30
2017-07-19T10:31:11.760Z,78.40
2017-07-19T10:33:38.748Z,77.90
2017-07-19T10:36:05.709Z,77.70
2017-07-19T10:38:32.683Z,77.90
2017-07-19T10:40:59.618Z,79.30
2017-07-19T10:43:26.580Z,78.00
2017-07-19T10:45:53.523Z,77.50
2017-07-19T10:48:21.418Z,77.10
2017-07-19T10:50:48.345Z,76.70
2017-07-19T10:53:15.331Z,76.70
2017-07-19T10:55:43.269Z,77.10
2017-07-19T10:58:10.208Z,75.60
2017-07-19T11:00:37.173Z,75.70
2017-07-19T11:03:04.105Z,73.90
2017-07-19T11:05:31.087Z,75.20
2017-07-19T11:07:59.822Z,74.90
2017-07-19T11:10:26.747Z,74.60
2017-07-19T11:12:53.683Z,71.80
2017-07-19T11:15:21.382Z,74.50
2017-07-19T11:17:50.277Z,74.10
2017-07-19T11:20:18.165Z,73.80
2017-07-19T11:22:45.138Z,72.50
2017-07-19T11:25:12.845Z,71.30
2017-07-19T11:27:40.813Z,71.60
2017-07-19T11:30:07.756Z,71.80
2017-07-19T11:32:35.736Z,72.70
2017-07-19T11:35:03.694Z,70.00
2017-07-19T11:37:31.965Z,70.00
2017-07-19T11:39:58.900Z,70.10
2017-07-19T11:42:25.878Z,69.70
2017-07-19T11:44:52.836Z,68.90
2017-07-19T11:47:19.813Z,69.50
2017-07-19T11:49:48.746Z,67.60
2017-07-19T11:52:15.685Z,66.90
2017-07-19T11:54:43.496Z,66.20
2017-07-19T11:57:10.428Z,66.40
2017-07-19T11:59:37.376Z,65.90
2017-07-19T12:02:04.329Z,66.20
2017-07-19T12:04:32.052Z,65.20
2017-07-19T12:06:58.985Z,65.20
2017-07-19T12:09:26.900Z,65.30
2017-07-19T12:11:54.603Z,66.00
2017-07-19T12:14:21.566Z,66.00
2017-07-19T12:16:48.535Z,64.70
2017-07-19T12:19:17.684Z,65.10
2017-07-19T12:21:44.658Z,62.70
2017-07-19T12:24:11.597Z,64.60
2017-07-19T12:26:38.582Z,63.50
2017-07-19T12:29:05.677Z,64.40
2017-07-19T12:31:33.570Z,63.80
2017-07-19T12:34:00.524Z,61.90
2017-07-19T12:36:27.486Z,64.30
2017-07-19T12:38:56.281Z,63.60
2017-07-19T12:41:23.260Z,63.40
2017-07-19T12:43:54.530Z,63.90
2017-07-19T12:46:21.509Z,63.00
2017-07-19T12:48:49.222Z,63.60
2017-07-19T12:51:16.203Z,62.90
2017-07-19T12:53:43.281Z,63.20
2017-07-19T12:56:11.056Z,63.30
2017-07-19T12:58:37.993Z,63.20
2017-07-19T13:01:06.826Z,63.20
2017-07-19T13:03:34.798Z,63.10
2017-07-19T13:06:01.729Z,64.30
2017-07-19T13:08:29.613Z,64.70
2017-07-19T13:10:56.533Z,64.40
2017-07-19T13:13:27.997Z,64.90
2017-07-19T13:15:59.421Z,64.80
2017-07-19T13:18:26.352Z,63.30
2017-07-19T13:20:54.272Z,64.00
2017-07-19T13:23:21.218Z,65.10
2017-07-19T13:25:48.561Z,65.40
2017-07-19T13:28:15.495Z,65.90
2017-07-19T13:30:43.352Z,66.40
2017-07-19T13:33:10.348Z,66.40
2017-07-19T13:35:37.293Z,61.50
2017-07-19T13:38:04.227Z,54.10
2017-07-19T13:40:36.074Z,47.40
2017-07-19T13:43:03.013Z,44.50
2017-07-19T13:45:30.024Z,46.30
2017-07-19T13:47:57.007Z,46.60
2017-07-19T13:50:24.980Z,46.30
2017-07-19T13:52:51.902Z,46.60
2017-07-19T13:55:18.857Z,48.50
2017-07-19T13:57:45.800Z,50.20
2017-07-19T14:00:12.845Z,51.60
2017-07-19T14:02:39.778Z,51.30
2017-07-19T14:05:06.717Z,52.20
2017-07-19T14:07:34.610Z,53.20
2017-07-19T14:10:03.453Z,53.80
2017-07-19T14:12:34.850Z,55.20
2017-07-19T14:15:02.902Z,55.20
2017-07-19T14:17:29.844Z,55.90
2017-07-19T14:19:56.771Z,56.40
2017-07-19T14:22:23.762Z,56.10
2017-07-19T14:24:51.735Z,55.10
2017-07-19T14:27:18.718Z,55.10
2017-07-19T14:29:46.463Z,54.50
2017-07-19T14:32:15.418Z,54.40
2017-07-19T14:34:43.276Z,53.30
2017-07-19T14:37:10.232Z,53.30
2017-07-19T14:39:37.523Z,52.60
2017-07-19T14:42:07.518Z,53.20
2017-07-19T14:44:35.483Z,53.90
2017-07-19T14:47:03.211Z,53.20
2017-07-19T14:49:30.149Z,53.20
2017-07-19T14:51:57.071Z,51.50
2017-07-19T14:54:24.019Z,49.50
2017-07-19T14:56:51.885Z,53.30
2017-07-19T14:59:18.836Z,54.70
2017-07-19T15:01:45.845Z,54.40
2017-07-19T15:04:12.835Z,50.70
2017-07-19T15:06:39.779Z,49.30
2017-07-19T15:09:06.734Z,46.30
2017-07-19T15:11:33.659Z,46.60
2017-07-19T15:14:00.604Z,47.80
2017-07-19T15:16:27.535Z,48.00
2017-07-19T15:18:54.530Z,49.60
2017-07-19T15:21:21.464Z,55.80
2017-07-19T15:23:49.414Z,61.20
2017-07-19T15:26:16.372Z,58.30
2017-07-19T15:28:43.331Z,58.90
2017-07-19T15:31:11.025Z,61.70
2017-07-19T15:33:37.954Z,61.50
2017-07-19T15:36:04.906Z,60.50
2017-07-19T15:38:31.868Z,59.70
2017-07-19T15:41:00.797Z,60.60
2017-07-19T15:43:28.643Z,61.70
2017-07-19T15:45:55.601Z,64.80
2017-07-19T15:48:25.820Z,66.80
2017-07-19T15:50:52.769Z,63.80
2017-07-19T15:53:19.701Z,60.10
2017-07-19T15:55:50.198Z,57.60
2017-07-19T15:58:17.135Z,56.30
2017-07-19T16:00:44.088Z,55.20
2017-07-19T16:03:11.801Z,57.10
2017-07-19T16:05:38.757Z,57.10
2017-07-19T16:08:05.696Z,59.00
2017-07-19T16:10:32.644Z,60.10
2017-07-19T16:12:59.580Z,62.50
2017-07-19T16:15:26.531Z,62.90
2017-07-19T16:17:53.455Z,63.10
2017-07-19T16:20:20.401Z,63.70
2017-07-19T16:22:47.324Z,62.90
2017-07-19T16:25:15.053Z,62.70
2017-07-19T16:27:41.980Z,62.60
2017-07-19T16:30:08.905Z,63.00
2017-07-19T16:32:35.838Z,63.30
2017-07-19T16:35:02.804Z,65.70
2017-07-19T16:37:29.746Z,67.80
2017-07-19T16:39:56.719Z,68.70
2017-07-19T16:42:23.671Z,67.20
2017-07-19T16:44:51.568Z,67.50
2017-07-19T16:47:19.416Z,67.20
2017-07-19T16:49:47.304Z,67.80
2017-07-19T16:52:14.238Z,68.70
2017-07-19T16:54:41.199Z,69.10
2017-07-19T16:57:08.321Z,69.40
2017-07-19T16:59:35.255Z,71.80
2017-07-19T17:02:02.192Z,73.00
2017-07-19T17:04:29.121Z,73.80
2017-07-19T17:06:56.831Z,76.40
2017-07-19T17:09:24.808Z,76.20
2017-07-19T17:11:51.737Z,78.20
2017-07-19T17:14:18.699Z,80.40
2017-07-19T17:16:46.401Z,82.80
2017-07-19T17:19:13.362Z,84.90
2017-07-19T17:21:41.220Z,86.50
2017-07-19T17:24:08.172Z,88.10
2017-07-19T17:26:35.094Z,89.60
2017-07-19T17:29:02.076Z,89.70
2017-07-19T17:31:29.011Z,90.50
2017-07-19T17:33:56.997Z,91.00
2017-07-19T17:36:23.935Z,90.90
2017-07-19T17:38:51.877Z,91.30
2017-07-19T17:41:18.855Z,92.00
2017-07-19T17:43:45.784Z,92.50
2017-07-19T17:46:12.732Z,93.40
2017-07-19T17:48:39.656Z,93.40
2017-07-19T17:51:06.715Z,94.10
2017-07-19T17:53:35.612Z,95.70
2017-07-19T17:56:02.593Z,95.70
2017-07-19T17:58:33.942Z,97.00
2017-07-19T18:01:00.908Z,97.90
2017-07-19T18:03:27.871Z,98.50
2017-07-19T18:05:55.781Z,99.80
2017-07-19T18:08:22.722Z,99.90
2017-07-19T18:10:51.595Z,99.90
2017-07-19T18:13:18.788Z,99.90
2017-07-19T18:15:46.658Z,99.90
2017-07-19T18:18:14.356Z,99.90
2017-07-19T18:20:41.336Z,99.90
2017-07-19T18:23:08.264Z,99.90
2017-07-19T18:25:35.212Z,99.90
2017-07-19T18:28:03.076Z,99.90
2017-07-19T18:30:30.035Z,99.90
2017-07-19T18:32:56.964Z,99.90
2017-07-19T18:35:23.972Z,99.90
2017-07-19T18:37:51.678Z,99.90
2017-07-19T18:40:18.656Z,99.90
2017-07-19T18:42:46.430Z,99.90
2017-07-19T18:45:15.188Z,99.90
2017-07-19T18:47:42.187Z,99.90
2017-07-19T18:50:09.118Z,99.90
2017-07-19T18:52:36.827Z,99.90
2017-07-19T18:55:03.752Z,99.90
2017-07-19T18:57:34.700Z,99.90
2017-07-19T19:00:02.662Z,99.90
2017-07-19T19:02:29.612Z,99.90
2017-07-19T19:04:58.503Z,99.90
2017-07-19T19:07:25.448Z,99.90
2017-07-19T19:09:52.371Z,99.90
2017-07-19T19:12:23.443Z,99.90
2017-07-19T19:14:51.388Z,99.90
2017-07-19T19:17:18.324Z,99.90
2017-07-19T19:19:51.392Z,99.90
2017-07-19T19:22:22.171Z,99.90
2017-07-19T19:24:49.126Z,99.90
2017-07-19T19:27:17.061Z,99.90
2017-07-19T19:29:44.007Z,99.90
2017-07-19T19:32:12.218Z,99.90
2017-07-19T19:34:39.201Z,99.90
2017-07-19T19:37:07.087Z,99.90
2017-07-19T19:39:34.047Z,99.90
2017-07-19T19:42:01.015Z,99.90
2017-07-19T19:44:27.968Z,99.90
2017-07-19T19:46:56.860Z,99.90
2017-07-19T19:49:23.902Z,99.90
2017-07-19T19:51:50.837Z,99.90
2017-07-19T19:54:18.813Z,99.90
2017-07-19T19:56:45.772Z,99.90
2017-07-19T19:59:12.698Z,99.90
2017-07-19T20:01:39.625Z,99.90
2017-07-19T20:04:06.568Z,99.90
2017-07-19T20:06:33.509Z,99.90
2017-07-19T20:09:00.455Z,99.90
2017-07-19T20:11:27.381Z,99.90
2017-07-19T20:13:54.337Z,99.90
2017-07-19T20:16:21.328Z,99.90
2017-07-19T20:18:48.284Z,99.90
2017-07-19T20:21:17.206Z,99.90
2017-07-19T20:23:45.132Z,99.90
2017-07-19T20:26:13.068Z,99.90
2017-07-19T20:28:40.032Z,99.90
2017-07-19T20:31:06.965Z,99.90
2017-07-19T20:33:33.898Z,99.90
2017-07-19T20:36:01.618Z,99.90
2017-07-19T20:38:28.581Z,99.90
2017-07-19T20:40:55.524Z,99.90
2017-07-19T20:43:26.325Z,99.90
2017-07-19T20:45:53.271Z,99.90
2017-07-19T20:48:20.204Z,99.90
2017-07-19T20:50:47.152Z,99.90
2017-07-19T20:53:14.857Z,99.90
2017-07-19T20:55:41.812Z,99.90
2017-07-19T20:58:08.737Z,99.90
2017-07-19T21:00:35.712Z,99.90
2017-07-19T21:03:02.648Z,99.90
2017-07-19T21:05:30.500Z,99.90
2017-07-19T21:07:57.448Z,99.90
2017-07-19T21:10:24.396Z,99.90
2017-07-19T21:12:51.369Z,99.90
2017-07-19T21:15:18.345Z,99.90
2017-07-19T21:17:45.281Z,99.90
2017-07-19T21:20:13.203Z,99.90
2017-07-19T21:22:41.148Z,99.90
2017-07-19T21:25:08.206Z,99.90
2017-07-19T21:27:36.212Z,99.90
2017-07-19T21:30:03.203Z,99.90
2017-07-19T21:32:30.210Z,99.90
2017-07-19T21:34:57.925Z,99.90
2017-07-19T21:37:24.895Z,99.90
2017-07-19T21:39:51.837Z,99.90
2017-07-19T21:42:18.813Z,99.90
2017-07-19T21:44:46.521Z,99.90
2017-07-19T21:47:13.485Z,99.90
2017-07-19T21:49:40.426Z,99.90
2017-07-19T21:52:08.799Z,99.90
2017-07-19T21:54:35.732Z,99.90
2017-07-19T21:57:02.664Z,99.90
2017-07-19T21:59:29.635Z,99.90
2017-07-19T22:01:56.586Z,99.90
2017-07-19T22:04:25.473Z,99.90
2017-07-19T22:06:52.429Z,99.90
2017-07-19T22:09:19.410Z,99.90
2017-07-19T22:11:48.177Z,99.90
2017-07-19T22:14:15.133Z,99.90
2017-07-19T22:16:42.117Z,99.90
2017-07-19T22:19:09.176Z,99.90
2017-07-19T22:21:36.100Z,99.90
2017-07-19T22:24:03.060Z,99.90
2017-07-19T22:26:29.984Z,99.90
2017-07-19T22:28:56.950Z,99.90
2017-07-19T22:31:24.658Z,99.90
2017-07-19T22:33:51.617Z,99.90
2017-07-19T22:36:18.553Z,99.90
2017-07-19T22:38:45.506Z,99.90
2017-07-19T22:41:12.445Z,99.90
2017-07-19T22:43:39.375Z,99.90
2017-07-19T22:46:06.321Z,99.90
2017-07-19T22:48:33.253Z,99.90
2017-07-19T22:51:00.215Z,99.90
2017-07-19T22:53:27.259Z,99.90
2017-07-19T22:55:54.262Z,99.90
2017-07-19T22:58:21.970Z,99.90
2017-07-19T23:00:48.948Z,99.90
2017-07-19T23:03:16.824Z,99.90
2017-07-19T23:05:44.557Z,99.90
2017-07-19T23:08:11.516Z,99.90
2017-07-19T23:10:39.332Z,99.90
2017-07-19T23:13:06.272Z,99.90
2017-07-19T23:15:33.940Z,99.90
2017-07-19T23:18:00.883Z,99.90
2017-07-19T23:20:27.824Z,99.90
2017-07-19T23:22:54.759Z,99.90
2017-07-19T23:25:22.451Z,99.90
2017-07-19T23:27:49.405Z,99.90
2017-07-19T23:30:16.338Z,99.90
2017-07-19T23:32:43.301Z,99.90
2017-07-19T23:35:10.240Z,99.90
2017-07-19T23:37:37.212Z,99.90
2017-07-19T23:40:05.161Z,99.90
2017-07-19T23:42:32.118Z,99.90
2017-07-19T23:44:59.053Z,99.90
2017-07-19T23:47:26.027Z,99.90
2017-07-19T23:49:52.957Z,99.90
2017-07-19T23:52:19.913Z,99.90
2017-07-19T23:54:46.850Z,99.90
2017-07-19T23:57:13.810Z,99.90
2017-07-19T23:59:41.513Z,99.90
